createdAt,value
2022-09-15T00:00:05.502Z,8.73
2022-09-15T00:02:33.010Z,8.80
2022-09-15T00:05:00.847Z,9.02
2022-09-15T00:07:28.419Z,9.73
2022-09-15T00:09:57.089Z,8.60
2022-09-15T00:12:24.592Z,11.32
2022-09-15T00:14:51.971Z,9.85
2022-09-15T00:17:19.283Z,12.23
2022-09-15T00:19:47.184Z,18.67
2022-09-15T00:22:14.572Z,13.63
2022-09-15T00:24:42.286Z,9.57
2022-09-15T00:27:10.977Z,7.28
2022-09-15T00:29:38.636Z,11.63
2022-09-15T00:32:06.179Z,9.80
2022-09-15T00:34:33.544Z,8.82
2022-09-15T00:37:00.938Z,13.32
2022-09-15T00:39:28.292Z,14.88
2022-09-15T00:41:55.645Z,9.52
2022-09-15T00:44:41.761Z,8.70
2022-09-15T00:47:19.105Z,11.05
2022-09-15T00:49:48.247Z,13.50
2022-09-15T00:52:18.679Z,12.07
2022-09-15T00:54:48.790Z,8.82
2022-09-15T00:57:18.732Z,11.35
2022-09-15T00:59:46.862Z,11.05
2022-09-15T01:02:17.108Z,9.30
2022-09-15T01:04:44.606Z,9.55
2022-09-15T01:07:17.967Z,10.88
2022-09-15T01:09:49.578Z,6.68
2022-09-15T01:12:17.076Z,19.38
2022-09-15T01:14:44.458Z,6.82
2022-09-15T01:17:15.828Z,10.38
2022-09-15T01:20:02.002Z,10.45
2022-09-15T01:22:36.512Z,8.35
2022-09-15T01:25:10.958Z,11.07
2022-09-15T01:27:56.725Z,14.23
2022-09-15T01:30:25.816Z,12.75
2022-09-15T01:33:13.032Z,8.70
2022-09-15T01:35:54.220Z,11.75
2022-09-15T01:38:43.499Z,9.48
2022-09-15T01:41:14.336Z,12.93
2022-09-15T01:43:43.660Z,12.77
2022-09-15T01:46:12.600Z,16.70
2022-09-15T01:48:40.489Z,14.75
2022-09-15T01:51:07.991Z,10.18
2022-09-15T01:53:35.900Z,14.25
2022-09-15T01:56:05.839Z,12.32
2022-09-15T01:58:33.287Z,9.75
2022-09-15T02:01:02.975Z,13.40
2022-09-15T02:03:42.136Z,10.32
2022-09-15T02:06:13.167Z,12.60
2022-09-15T02:08:43.792Z,12.85
2022-09-15T02:11:14.689Z,11.75
2022-09-15T02:16:13.978Z,10.80
2022-09-15T02:18:45.217Z,11.30
2022-09-15T02:21:14.994Z,10.30
2022-09-15T02:23:45.314Z,15.98
2022-09-15T02:26:16.789Z,9.48
2022-09-15T02:28:45.460Z,12.85
2022-09-15T02:31:15.547Z,14.38
2022-09-15T02:33:48.803Z,10.55
2022-09-15T02:36:19.738Z,13.48
2022-09-15T02:38:50.124Z,13.02
2022-09-15T02:41:17.637Z,10.40
2022-09-15T02:43:45.995Z,12.68
2022-09-15T02:46:13.385Z,11.95
2022-09-15T02:48:40.886Z,12.48
2022-09-15T02:51:09.587Z,13.32
2022-09-15T02:53:37.043Z,12.98
2022-09-15T02:56:06.466Z,12.35
2022-09-15T02:58:34.004Z,13.57
2022-09-15T03:01:02.514Z,13.77
2022-09-15T03:03:29.914Z,15.13
2022-09-15T03:06:16.221Z,12.52
2022-09-15T03:08:45.571Z,12.02
2022-09-15T03:11:12.943Z,10.65
2022-09-15T03:13:40.694Z,14.35
2022-09-15T03:16:08.784Z,13.07
2022-09-15T03:18:36.654Z,13.23
2022-09-15T03:21:05.311Z,17.23
2022-09-15T03:23:32.779Z,14.52
2022-09-15T03:26:01.940Z,10.48
2022-09-15T03:28:29.389Z,11.18
2022-09-15T03:30:57.396Z,12.98
2022-09-15T03:33:25.342Z,13.50
2022-09-15T03:35:53.081Z,14.82
2022-09-15T03:38:21.028Z,18.00
2022-09-15T03:40:56.779Z,14.73
2022-09-15T03:43:25.650Z,15.48
2022-09-15T03:45:53.042Z,13.68
2022-09-15T03:48:20.530Z,12.50
2022-09-15T03:50:48.078Z,14.48
2022-09-15T03:53:15.505Z,17.00
2022-09-15T03:55:42.883Z,12.07
2022-09-15T03:58:10.215Z,17.92
2022-09-15T04:00:38.972Z,12.55
2022-09-15T04:03:06.766Z,12.00
2022-09-15T04:05:34.176Z,9.68
2022-09-15T04:08:01.553Z,19.67
2022-09-15T04:10:29.260Z,15.93
2022-09-15T04:12:56.674Z,14.02
2022-09-15T04:15:24.043Z,16.15
2022-09-15T04:17:52.711Z,14.32
2022-09-15T04:20:20.166Z,12.15
2022-09-15T04:22:47.564Z,16.23
2022-09-15T04:25:14.957Z,12.68
2022-09-15T04:27:42.464Z,18.60
2022-09-15T04:30:10.250Z,16.85
2022-09-15T04:32:37.673Z,11.13
2022-09-15T04:35:06.917Z,15.40
2022-09-15T04:37:34.226Z,13.90
2022-09-15T04:40:02.262Z,18.13
2022-09-15T04:42:31.019Z,12.25
2022-09-15T04:44:58.433Z,11.77
2022-09-15T04:47:25.878Z,16.08
2022-09-15T04:49:53.252Z,12.20
2022-09-15T04:52:22.007Z,11.60
2022-09-15T04:54:49.409Z,16.27
2022-09-15T04:57:16.781Z,14.48
2022-09-15T04:59:44.149Z,11.90
2022-09-15T05:02:11.559Z,12.88
2022-09-15T05:04:38.998Z,13.50
2022-09-15T05:07:06.320Z,16.80
2022-09-15T05:09:35.019Z,11.35
2022-09-15T05:12:02.699Z,14.70
2022-09-15T05:14:31.175Z,12.88
2022-09-15T05:16:58.531Z,16.40
2022-09-15T05:19:26.057Z,15.07
2022-09-15T05:21:53.451Z,14.85
2022-09-15T05:24:20.930Z,13.05
2022-09-15T05:26:49.647Z,14.55
2022-09-15T05:29:16.998Z,16.85
2022-09-15T05:31:44.391Z,13.60
2022-09-15T05:34:12.165Z,16.00
2022-09-15T05:36:39.542Z,13.30
2022-09-15T05:39:06.875Z,9.77
2022-09-15T05:41:34.274Z,11.50
2022-09-15T05:44:03.162Z,12.80
2022-09-15T05:46:30.994Z,10.00
2022-09-15T05:48:59.169Z,12.07
2022-09-15T05:51:26.743Z,11.68
2022-09-15T05:53:54.115Z,13.73
2022-09-15T05:56:21.544Z,14.75
2022-09-15T05:58:49.834Z,10.85
2022-09-15T06:01:19.740Z,13.00
2022-09-15T06:03:47.330Z,9.60
2022-09-15T06:06:14.767Z,14.05
2022-09-15T06:08:55.447Z,12.68
2022-09-15T06:11:25.799Z,14.85
2022-09-15T06:13:53.183Z,13.02
2022-09-15T06:16:23.045Z,11.95
2022-09-15T06:18:51.437Z,8.23
2022-09-15T06:21:19.772Z,8.65
2022-09-15T06:23:50.701Z,12.45
2022-09-15T06:26:21.342Z,7.07
2022-09-15T06:28:49.592Z,10.55
2022-09-15T06:31:17.095Z,6.82
2022-09-15T06:33:46.875Z,10.65
2022-09-15T06:36:15.354Z,9.30
2022-09-15T06:38:43.226Z,8.57
2022-09-15T06:41:11.066Z,7.38
2022-09-15T06:43:38.842Z,5.57
2022-09-15T06:46:07.788Z,8.65
2022-09-15T06:48:35.580Z,11.13
2022-09-15T06:51:04.809Z,6.82
2022-09-15T06:53:32.546Z,9.25
2022-09-15T06:56:02.861Z,10.27
2022-09-15T06:58:30.210Z,5.88
2022-09-15T07:01:01.336Z,6.10
2022-09-15T07:03:28.998Z,10.48
2022-09-15T07:05:56.556Z,7.00
2022-09-15T07:08:25.225Z,4.25
2022-09-15T07:10:52.818Z,10.68
2022-09-15T07:13:20.316Z,6.10
2022-09-15T07:15:51.445Z,6.55
2022-09-15T07:18:18.843Z,8.23
2022-09-15T07:20:46.188Z,7.43
2022-09-15T07:23:13.622Z,8.43
2022-09-15T07:25:44.030Z,7.22
2022-09-15T07:28:11.478Z,5.03
2022-09-15T07:30:39.691Z,6.35
2022-09-15T07:33:07.054Z,4.63
2022-09-15T07:35:34.439Z,6.95
2022-09-15T07:38:01.811Z,5.28
2022-09-15T07:40:29.245Z,5.05
2022-09-15T07:42:58.039Z,5.15
2022-09-15T07:45:25.431Z,4.45
2022-09-15T07:47:52.839Z,7.13
2022-09-15T07:50:20.147Z,4.80
2022-09-15T07:52:47.501Z,5.93
2022-09-15T07:55:14.960Z,5.47
2022-09-15T07:57:42.338Z,7.63
2022-09-15T08:00:11.908Z,4.80
2022-09-15T08:02:39.451Z,5.47
2022-09-15T08:05:07.426Z,3.97
2022-09-15T08:07:34.815Z,4.82
2022-09-15T08:10:02.178Z,7.97
2022-09-15T08:12:30.682Z,6.30
2022-09-15T08:14:58.033Z,8.57
2022-09-15T08:17:26.721Z,6.45
2022-09-15T08:19:54.067Z,7.90
2022-09-15T08:22:21.411Z,5.63
2022-09-15T08:24:48.768Z,7.32
2022-09-15T08:27:16.097Z,7.07
2022-09-15T08:29:43.696Z,6.10
2022-09-15T08:32:12.005Z,5.78
2022-09-15T08:34:40.716Z,6.80
2022-09-15T08:37:08.130Z,7.43
2022-09-15T08:39:35.531Z,6.38
2022-09-15T08:42:03.737Z,4.32
2022-09-15T08:44:35.816Z,7.30
2022-09-15T08:47:05.352Z,5.95
2022-09-15T08:49:50.476Z,5.78
2022-09-15T08:52:22.827Z,7.13
2022-09-15T08:54:51.419Z,4.82
2022-09-15T08:57:21.140Z,6.72
2022-09-15T08:59:48.530Z,7.97
2022-09-15T09:02:29.740Z,6.20
2022-09-15T09:05:17.457Z,4.82
2022-09-15T09:07:53.808Z,10.25
2022-09-15T09:10:26.236Z,6.25
2022-09-15T09:12:58.281Z,6.85
2022-09-15T09:15:33.582Z,8.68
2022-09-15T09:18:19.436Z,5.35
2022-09-15T09:20:52.404Z,7.15
2022-09-15T09:23:22.500Z,4.75
2022-09-15T09:25:50.015Z,6.93
2022-09-15T09:28:25.202Z,7.15
2022-09-15T09:30:52.978Z,6.40
2022-09-15T09:33:25.957Z,3.78
2022-09-15T09:35:53.661Z,9.63
2022-09-15T09:38:23.405Z,4.70
2022-09-15T09:40:50.844Z,3.20
2022-09-15T09:43:18.470Z,4.60
2022-09-15T09:45:46.044Z,4.18
2022-09-15T09:48:15.747Z,5.18
2022-09-15T09:50:44.135Z,4.20
2022-09-15T09:53:18.618Z,6.45
2022-09-15T09:55:47.632Z,4.20
2022-09-15T09:58:18.543Z,5.95
2022-09-15T10:00:46.166Z,4.45
2022-09-15T10:03:16.961Z,6.88
2022-09-15T10:05:44.967Z,4.55
2022-09-15T10:08:16.467Z,4.43
2022-09-15T10:10:52.406Z,9.02
2022-09-15T10:13:20.025Z,5.45
2022-09-15T10:15:51.372Z,5.88
2022-09-15T10:18:27.708Z,5.30
2022-09-15T10:20:55.225Z,4.57
2022-09-15T10:23:27.074Z,5.28
2022-09-15T10:25:59.843Z,5.30
2022-09-15T10:28:28.246Z,4.75
2022-09-15T10:31:00.235Z,6.15
2022-09-15T10:33:28.691Z,6.13
2022-09-15T10:36:00.382Z,5.22
2022-09-15T10:38:31.774Z,3.50
2022-09-15T10:41:07.502Z,2.85
2022-09-15T10:43:41.861Z,2.97
2022-09-15T10:46:13.522Z,4.88
2022-09-15T10:48:44.987Z,3.60
2022-09-15T10:51:18.824Z,3.30
2022-09-15T10:54:01.068Z,3.17
2022-09-15T10:56:31.394Z,6.55
2022-09-15T10:59:03.370Z,4.82
2022-09-15T11:01:47.390Z,4.72
2022-09-15T11:04:23.447Z,8.07
2022-09-15T11:06:53.904Z,4.63
2022-09-15T11:11:53.591Z,2.63
2022-09-15T11:14:31.378Z,3.50
2022-09-15T11:17:03.696Z,7.93
2022-09-15T11:19:43.875Z,2.72
2022-09-15T11:22:13.298Z,4.53
2022-09-15T11:24:42.929Z,5.22
2022-09-15T11:27:15.812Z,3.42
2022-09-15T11:29:53.374Z,2.28
2022-09-15T11:32:25.470Z,4.57
2022-09-15T11:34:54.956Z,4.68
2022-09-15T11:37:24.942Z,3.05
2022-09-15T11:39:57.515Z,2.47
2022-09-15T11:42:27.723Z,2.38
2022-09-15T11:44:56.058Z,3.28
2022-09-15T11:47:27.061Z,4.28
2022-09-15T11:49:56.311Z,3.63
2022-09-15T11:52:41.588Z,2.75
2022-09-15T11:55:15.677Z,5.85
2022-09-15T11:57:46.634Z,2.28
2022-09-15T12:00:15.039Z,1.88
2022-09-15T12:02:46.757Z,3.55
2022-09-15T12:05:16.152Z,3.38
2022-09-15T12:07:47.213Z,4.30
2022-09-15T12:10:16.185Z,4.30
2022-09-15T12:12:46.052Z,3.85
2022-09-15T12:15:18.310Z,4.80
2022-09-15T12:17:48.840Z,4.90
2022-09-15T12:22:46.763Z,2.42
2022-09-15T12:25:16.517Z,4.55
2022-09-15T12:27:46.504Z,5.40
2022-09-15T12:30:28.747Z,4.40
2022-09-15T12:32:57.100Z,3.40
2022-09-15T12:35:31.076Z,3.47
2022-09-15T12:37:59.443Z,3.67
2022-09-15T12:40:29.087Z,5.20
2022-09-15T12:42:58.159Z,4.60
2022-09-15T12:45:27.233Z,6.43
2022-09-15T12:47:56.446Z,5.90
2022-09-15T12:50:25.378Z,3.17
2022-09-15T12:52:54.314Z,3.90
2022-09-15T12:55:22.548Z,3.58
2022-09-15T12:57:55.054Z,2.88
2022-09-15T13:00:29.115Z,4.22
2022-09-15T13:02:56.722Z,7.30
2022-09-15T13:05:42.604Z,5.28
2022-09-15T13:08:11.548Z,3.92
2022-09-15T13:10:41.934Z,9.60
2022-09-15T13:13:24.210Z,3.70
2022-09-15T13:15:54.136Z,2.35
2022-09-15T13:18:22.204Z,6.45
2022-09-15T13:20:59.031Z,5.05
2022-09-15T13:23:28.046Z,5.05
2022-09-15T13:25:57.612Z,4.63
2022-09-15T13:28:25.502Z,3.05
2022-09-15T13:31:09.705Z,7.15
2022-09-15T13:39:42.525Z,4.38
2022-09-15T13:42:20.673Z,4.68
2022-09-15T13:45:06.182Z,5.22
2022-09-15T13:47:39.026Z,3.70
2022-09-15T13:50:15.697Z,3.75
2022-09-15T13:52:49.006Z,3.70
2022-09-15T13:55:19.410Z,2.92
2022-09-15T14:00:35.621Z,2.92
2022-09-15T14:03:06.534Z,4.55
2022-09-15T14:05:35.555Z,4.03
2022-09-15T14:08:04.229Z,3.33
2022-09-15T14:10:33.023Z,3.38
2022-09-15T14:13:00.857Z,4.82
2022-09-15T14:15:29.043Z,5.38
2022-09-15T14:17:56.875Z,3.20
2022-09-15T14:20:27.375Z,3.42
2022-09-15T14:22:54.822Z,3.35
2022-09-15T14:25:22.904Z,4.55
2022-09-15T14:27:51.213Z,2.85
2022-09-15T14:30:20.328Z,2.17
2022-09-15T14:32:49.738Z,4.63
2022-09-15T14:35:19.842Z,4.03
2022-09-15T14:40:20.695Z,2.72
2022-09-15T14:42:48.147Z,2.53
2022-09-15T14:48:07.086Z,3.55
2022-09-15T14:50:34.957Z,6.10
2022-09-15T14:53:03.856Z,3.95
2022-09-15T14:55:36.726Z,2.65
2022-09-15T14:58:07.126Z,2.83
2022-09-15T15:00:38.090Z,3.40
2022-09-15T15:03:17.530Z,4.93
2022-09-15T15:05:48.567Z,2.90
2022-09-15T15:08:20.456Z,2.90
2022-09-15T15:10:49.295Z,2.65
2022-09-15T15:13:17.778Z,2.45
2022-09-15T15:15:45.515Z,2.75
2022-09-15T15:18:31.628Z,2.88
2022-09-15T15:21:00.154Z,2.63
2022-09-15T15:23:28.391Z,3.30
2022-09-15T15:26:17.198Z,4.50
2022-09-15T15:28:44.763Z,2.38
2022-09-15T15:31:14.364Z,2.22
2022-09-15T15:33:46.935Z,2.67
2022-09-15T15:36:14.425Z,3.30
2022-09-15T15:38:47.203Z,4.20
2022-09-15T15:41:21.297Z,2.38
2022-09-15T15:43:55.645Z,2.85
2022-09-15T15:46:37.893Z,2.30
2022-09-15T15:49:07.808Z,3.78
2022-09-15T15:51:35.178Z,3.67
2022-09-15T15:54:02.544Z,2.85
2022-09-15T15:56:33.600Z,3.90
2022-09-15T15:59:05.262Z,2.40
2022-09-15T16:01:32.678Z,5.43
2022-09-15T16:04:00.106Z,3.35
2022-09-15T16:06:27.569Z,3.67
2022-09-15T16:08:58.023Z,3.78
2022-09-15T16:11:25.422Z,2.88
2022-09-15T16:13:54.283Z,2.92
2022-09-15T16:16:22.640Z,4.07
2022-09-15T16:18:50.251Z,1.63
2022-09-15T16:21:18.491Z,3.28
2022-09-15T16:23:46.451Z,4.57
2022-09-15T16:26:15.294Z,2.65
2022-09-15T16:28:42.710Z,7.20
2022-09-15T16:31:12.715Z,2.63
2022-09-15T16:33:40.166Z,3.75
2022-09-15T16:36:12.234Z,3.13
2022-09-15T16:38:39.674Z,3.88
2022-09-15T16:41:11.501Z,3.20
2022-09-15T16:43:38.847Z,4.20
2022-09-15T16:46:07.184Z,4.03
2022-09-15T16:48:35.918Z,3.33
2022-09-15T16:51:23.054Z,3.58
2022-09-15T16:53:51.960Z,3.42
2022-09-15T16:56:19.459Z,5.32
2022-09-15T16:58:46.875Z,2.72
2022-09-15T17:01:17.036Z,3.63
2022-09-15T17:03:46.391Z,4.72
2022-09-15T17:06:14.522Z,3.15
2022-09-15T17:08:42.170Z,3.72
2022-09-15T17:11:16.222Z,2.60
2022-09-15T17:13:44.185Z,4.30
2022-09-15T17:16:11.964Z,2.38
2022-09-15T17:18:39.363Z,3.65
2022-09-15T17:21:10.420Z,2.42
2022-09-15T17:23:38.867Z,2.75
2022-09-15T17:26:07.143Z,2.90
2022-09-15T17:28:36.458Z,4.18
2022-09-15T17:31:04.777Z,2.40
2022-09-15T17:33:32.697Z,2.17
2022-09-15T17:36:00.372Z,3.90
2022-09-15T17:38:29.147Z,3.95
2022-09-15T17:40:56.619Z,1.73
2022-09-15T17:43:25.198Z,2.47
2022-09-15T17:45:53.075Z,2.97
2022-09-15T17:48:20.765Z,4.10
2022-09-15T17:50:48.845Z,1.45
2022-09-15T17:53:17.600Z,0.90
2022-09-15T17:55:46.432Z,3.08
2022-09-15T17:58:14.131Z,2.35
2022-09-15T18:00:42.364Z,2.03
2022-09-15T18:03:19.441Z,2.35
2022-09-15T18:05:46.895Z,2.80
2022-09-15T18:08:14.411Z,3.85
2022-09-15T18:10:41.818Z,2.25
2022-09-15T18:13:14.022Z,1.55
2022-09-15T18:15:41.404Z,1.77
2022-09-15T18:18:12.871Z,2.55
2022-09-15T18:20:40.307Z,2.83
2022-09-15T18:23:07.773Z,3.30
2022-09-15T18:25:36.782Z,1.85
2022-09-15T18:28:04.884Z,1.77
2022-09-15T18:30:34.611Z,2.60
2022-09-15T18:33:02.005Z,1.83
2022-09-15T18:35:29.471Z,4.78
2022-09-15T18:37:57.520Z,2.35
2022-09-15T18:40:25.469Z,2.60
2022-09-15T18:42:52.884Z,2.40
2022-09-15T18:45:20.367Z,2.38
2022-09-15T18:47:49.756Z,1.67
2022-09-15T18:50:18.027Z,4.15
2022-09-15T18:52:45.684Z,3.05
2022-09-15T18:55:15.079Z,2.50
2022-09-15T18:57:42.650Z,2.88
2022-09-15T19:00:11.923Z,1.85
2022-09-15T19:02:39.465Z,2.35
2022-09-15T19:05:11.133Z,3.40
2022-09-15T19:07:38.658Z,2.58
2022-09-15T19:10:06.554Z,5.50
2022-09-15T19:12:35.344Z,3.45
2022-09-15T19:15:02.775Z,5.38
2022-09-15T19:17:30.247Z,3.95
2022-09-15T19:19:57.641Z,3.08
2022-09-15T19:22:26.436Z,2.25
2022-09-15T19:24:53.909Z,2.88
2022-09-15T19:27:21.324Z,4.22
2022-09-15T19:29:48.807Z,5.88
2022-09-15T19:32:16.791Z,3.95
2022-09-15T19:34:44.186Z,5.97
2022-09-15T19:37:16.426Z,3.55
2022-09-15T19:39:47.383Z,3.38
2022-09-15T19:44:49.365Z,2.80
2022-09-15T19:47:17.085Z,3.72
2022-09-15T19:49:44.838Z,4.97
2022-09-15T19:52:12.770Z,2.47
2022-09-15T19:54:40.164Z,3.90
2022-09-15T19:57:08.899Z,2.67
2022-09-15T19:59:36.364Z,3.30
2022-09-15T20:02:03.785Z,2.75
2022-09-15T20:04:31.178Z,2.75
2022-09-15T20:06:58.617Z,3.90
2022-09-15T20:09:26.176Z,3.78
2022-09-15T20:11:53.571Z,3.97
2022-09-15T20:14:22.295Z,3.08
2022-09-15T20:16:49.680Z,4.15
2022-09-15T20:19:17.115Z,3.33
2022-09-15T20:21:50.373Z,3.45
2022-09-15T20:24:19.194Z,3.88
2022-09-15T20:26:46.543Z,4.78
2022-09-15T20:29:14.297Z,4.45
2022-09-15T20:31:43.474Z,3.97
2022-09-15T20:34:10.868Z,4.95
2022-09-15T20:36:39.332Z,2.97
2022-09-15T20:39:08.814Z,4.00
2022-09-15T20:41:36.220Z,2.60
2022-09-15T20:44:05.183Z,2.95
2022-09-15T20:46:32.578Z,2.40
2022-09-15T20:49:01.357Z,2.80
2022-09-15T20:51:31.444Z,3.17
2022-09-15T20:54:00.117Z,4.40
2022-09-15T20:56:28.224Z,4.30
2022-09-15T20:58:56.878Z,3.67
2022-09-15T21:01:25.182Z,3.95
2022-09-15T21:03:53.358Z,3.15
2022-09-15T21:06:22.641Z,4.57
2022-09-15T21:08:50.650Z,3.28
2022-09-15T21:11:19.323Z,3.22
2022-09-15T21:13:47.140Z,5.05
2022-09-15T21:16:15.219Z,4.97
2022-09-15T21:18:43.391Z,3.00
2022-09-15T21:21:11.736Z,5.30
2022-09-15T21:23:41.413Z,4.43
2022-09-15T21:26:09.729Z,4.43
2022-09-15T21:28:37.356Z,4.50
2022-09-15T21:31:05.009Z,2.97
2022-09-15T21:33:32.709Z,3.65
2022-09-15T21:36:04.972Z,4.80
2022-09-15T21:38:32.505Z,3.33
2022-09-15T21:41:01.233Z,2.50
2022-09-15T21:43:32.122Z,3.53
2022-09-15T21:48:27.685Z,5.72
2022-09-15T21:50:55.291Z,4.15
2022-09-15T21:53:23.108Z,3.13
2022-09-15T21:55:51.031Z,3.83
2022-09-15T21:58:20.705Z,4.30
2022-09-15T22:00:48.153Z,3.85
2022-09-15T22:03:16.120Z,3.50
2022-09-15T22:05:44.772Z,2.55
2022-09-15T22:08:12.899Z,3.05
2022-09-15T22:10:40.296Z,2.13
2022-09-15T22:13:08.111Z,2.90
2022-09-15T22:15:36.972Z,3.88
2022-09-15T22:18:05.012Z,3.17
2022-09-15T22:20:32.426Z,3.75
2022-09-15T22:23:01.189Z,2.88
2022-09-15T22:25:28.948Z,5.28
2022-09-15T22:27:56.321Z,4.20
2022-09-15T22:30:23.669Z,2.65
2022-09-15T22:32:53.164Z,3.60
2022-09-15T22:35:20.573Z,4.07
2022-09-15T22:37:47.953Z,5.97
2022-09-15T22:40:16.979Z,3.38
2022-09-15T22:42:44.441Z,4.53
2022-09-15T22:45:12.023Z,2.47
2022-09-15T22:47:39.367Z,3.22
2022-09-15T22:50:08.343Z,2.08
2022-09-15T22:52:35.690Z,3.20
2022-09-15T22:55:03.152Z,3.08
2022-09-15T22:57:30.527Z,4.18
2022-09-15T22:59:57.882Z,3.75
2022-09-15T23:02:25.347Z,3.30
2022-09-15T23:04:54.120Z,3.72
2022-09-15T23:07:22.792Z,4.95
2022-09-15T23:09:50.369Z,4.15
2022-09-15T23:12:17.799Z,2.55
2022-09-15T23:14:45.168Z,2.25
2022-09-15T23:17:13.145Z,4.57
2022-09-15T23:19:40.506Z,2.90
2022-09-15T23:22:07.904Z,4.35
2022-09-15T23:24:36.619Z,2.53
2022-09-15T23:27:04.352Z,3.35
2022-09-15T23:29:31.692Z,3.10
2022-09-15T23:31:59.055Z,3.65
2022-09-15T23:34:26.447Z,5.28
2022-09-15T23:36:53.867Z,4.32
2022-09-15T23:39:21.240Z,4.35
2022-09-15T23:41:49.897Z,3.85
2022-09-15T23:44:17.314Z,6.07
2022-09-15T23:46:44.771Z,2.78
2022-09-15T23:49:15.462Z,5.13
2022-09-15T23:51:45.419Z,5.40
2022-09-15T23:54:12.843Z,2.75
2022-09-15T23:56:40.225Z,4.38
2022-09-15T23:59:08.940Z,5.53
